Millington Regional Jetport Airport
KNQA : rendu visible

Aérodrome :











RETROUVEZ-NOUS SUR...

 
LOGIN :

S'inscrire | Disclaimer

   EN    FR    IT 

 









Légende :    VFR   VFR Marginal   IFR   IFR Intensif   IFR Très Intensif
Visi : 
Plafond : 
>= 8 km
>= 3000ft
5 à 8 km
1000 à 3000 ft
1500m à 5 km
500 à 1000 ft
800 à 1500m
200 à 500 ft
< 800m
< 200 ft
Symboles :   Orages  Brouillard  Fortes neiges  Fortes précipitations  Vent > 20 kt






- Altitude de l'aérodrome : 320 ft


KNQA - Millington Regional Jetport

DERNIER METAR :
  • 200255Z AUTO 01006KT 10SM CLR M02/M09 A3048 RMK A01

METARs EXPIRÉS :
  • 200235Z AUTO 01009KT 10SM CLR M01/M09 A3048 RMK A01
  • 200215Z AUTO 36009KT 10SM CLR M01/M09 A3048 RMK A01
  • 200155Z AUTO 01008KT 10SM CLR M01/M08 A3046 RMK A01
  • 200135Z AUTO 01008KT 10SM CLR M01/M08 A3046 RMK A01
  • 200115Z AUTO 01008KT 10SM CLR M00/M08 A3046 RMK A01
  • 200055Z AUTO 01007KT 10SM CLR M00/M08 A3046 RMK A01
  • 200050Z 01009KT 10SM CLR 00/M08 A3046

TAF N/A



MET'MAP, la Météo Aéronautique d'un coup d'oeil ! - Copyright ORBIFLY Décembre 2007 - Disclaimer

ORBIFLY MET'MAP TEAM :

Programmation & Développement : Alexandra Zaïnal
Sur une idée originale de : Baudouin d'Aumeries
Assistance à la programmation : Marc-Olivier Méhu
Soutien technique & logistique : Manuel Goepfert

Contact : metmap@orbifly.com




SOURCES & CREDITS :

   NOAA       Earth
Advisory